This is the latest recevied weather packets stored in our database for station/object DM1RG-6. If no packets are shown the sender has not sent any weather packets the latest 10 day(s).
| Time | Temp. | Humidity | Pressure | Rain* | Wind** | Luminosity | Snow |
|---|---|---|---|---|---|---|---|
| 1777635363 | 21.67° C | 36% | 1027.9 hPa | 0 mm | - | - | - |
| 1777635003 | 21.67° C | 36% | 1027.6 hPa | 0 mm | - | - | - |
| 1777634643 | 21.11° C | 37% | 1027.9 hPa | 0 mm | - | - | - |
| 1777634283 | 22.22° C | 35% | 1027.8 hPa | 0 mm | - | - | - |
| 1777633924 | 21.67° C | 36% | 1028 hPa | 0 mm | - | - | - |
| 1777633563 | 20.56° C | 38% | 1028.1 hPa | 0 mm | - | - | - |
| 1777633203 | 21.67° C | 36% | 1028.1 hPa | 0 mm | - | - | - |
| 1777632844 | 20.56° C | 40% | 1028.5 hPa | 0 mm | - | - | - |
| 1777632483 | 20.56° C | 38% | 1028.2 hPa | 0 mm | - | - | - |
| 1777632123 | 20.56° C | 39% | 1028.3 hPa | 0 mm | - | - | - |
| 1777631763 | 20.56° C | 40% | 1028.5 hPa | 0 mm | - | - | - |
| 1777631403 | 20° C | 41% | 1028.4 hPa | 0 mm | - | - | - |
| 1777631043 | 20° C | 41% | 1028.5 hPa | 0 mm | - | - | - |
| 1777630684 | 21.11° C | 40% | 1028.3 hPa | 0 mm | - | - | - |
| 1777630323 | 20.56° C | 41% | 1028.8 hPa | 0 mm | - | - | - |
| 1777629963 | 20.56° C | 41% | 1028.6 hPa | 0 mm | - | - | - |
| 1777629603 | 20° C | 41% | 1028.6 hPa | 0 mm | - | - | - |
| 1777629243 | 20.56° C | 39% | 1028.7 hPa | 0 mm | - | - | - |
| 1777628883 | 21.11° C | 38% | 1028.9 hPa | 0 mm | - | - | - |
| 1777628163 | 19.44° C | 40% | 1028.9 hPa | 0 mm | - | - | - |
| 1777627804 | 20° C | 40% | 1028.9 hPa | 0 mm | - | - | - |
| 1777627443 | 20.56° C | 41% | 1029 hPa | 0 mm | - | - | - |
| 1777627083 | 20° C | 40% | 1029.2 hPa | 0 mm | - | - | - |
| 1777626723 | 19.44° C | 42% | 1029.1 hPa | 0 mm | - | - | - |
| 1777626364 | 19.44° C | 42% | 1028.9 hPa | 0 mm | - | - | - |
* Rain latest hour (hover to see other rain measurements)
** Current wind speed in m/s (hover to see current wind gust speed)